• Join FlightAware (Why Join?)
  • Login
  • US Flag 
05:26AM EDT


 

Airport Tracker/Info


-or-


 

Live Flight TrackerFlight Track Log ✈ DCM6083 ✈ 02-May-2012 ✈ KMAF - KBFL

Flight Track Log - Related Links

Times and Time Zones

All times are in EDT time to prevent confusion due to time zone crossing. See the DCM6083 flight status page for this flight to view local times or setup timezone preferences in your user account.

Time Position Orientation Groundspeed Altitude Reporting Facility
EDT Latitude Longitude Course Direction KTS MPH feet Rate Location/Type
04:05PM 31.9333 -102.3593 180° South  Level FlightAware Approximate
04:06PM 31.9334 -102.4866 120° Southeast  Level FlightAware Approximate
04:06PM 31.8717 -102.3594 270° West 279 321 11,300  Level Fort Worth Center
04:07PM 31.8714 -102.4694 270° West 304 350 13,500 2,460 Climbing Fort Worth Center
04:08PM 31.8708 -102.5844 270° West 336 387 16,300 2,940 Climbing Fort Worth Center
04:09PM 31.8703 -102.7042 269° West 355 409 19,400 3,000 Climbing Fort Worth Center
04:10PM 31.8692 -102.8264 268° West 367 422 22,300 2,700 Climbing Fort Worth Center
04:11PM 31.8658 -102.9483 270° West 367 422 24,900 2,520 Climbing Fort Worth Center
04:12PM 31.8664 -103.0756 270° West 372 428 27,400 2,580 Climbing Fort Worth Center
04:15PM 31.8667 -103.3547 270° West 396 456 33,100 2,400 Climbing Albuquerque Center
04:16PM 31.8667 -103.4817 270° West 390 449 34,900 1,620 Climbing Albuquerque Center
04:17PM 31.8667 -103.6086 270° West 390 449 36,400 1,560 Climbing Albuquerque Center
04:18PM 31.8664 -103.7381 270° West 390 449 38,100 1,740 Climbing Albuquerque Center
04:19PM 31.8656 -103.8481 277° West 390 449 39,900 900 Climbing Albuquerque Center
04:20PM 31.8794 -103.9747 280° West 387 445 40,000  Climbing Albuquerque Center
04:21PM 31.9003 -104.1156 279° West 392 451 40,000  Level Albuquerque Center
04:22PM 31.9183 -104.2517 281° West 412 474 40,000  Level Albuquerque Center
04:23PM 31.9406 -104.3878 279° West 425 489 40,000  Level Albuquerque Center
04:24PM 31.9583 -104.5217 279° West 425 489 40,000  Level Albuquerque Center
04:25PM 31.9761 -104.6558 280° West 425 489 40,000 -60 Level Albuquerque Center
04:26PM 31.9958 -104.7897 280° West 425 489 39,900  Descending Albuquerque Center
04:27PM 32.0153 -104.9261 278° West 425 489 40,000  Climbing Albuquerque Center
04:28PM 32.0325 -105.0653 279° West 430 495 40,000  Level Albuquerque Center
04:29PM 32.0517 -105.2017 279° West 430 495 40,000  Level Albuquerque Center
04:30PM 32.0708 -105.3408 278° West 425 489 40,000  Level Albuquerque Center
04:31PM 32.0878 -105.4775 279° West 425 489 40,000  Level Albuquerque Center
04:32PM 32.1064 -105.6144 279° West 425 489 40,000  Level Albuquerque Center
04:33PM 32.1250 -105.7536 279° West 425 489 40,000 -60 Level Albuquerque Center
04:34PM 32.1436 -105.8906 278° West 425 489 39,900  Descending Albuquerque Center
04:35PM 32.1575 -106.0131 279° West 425 489 40,000  Climbing Albuquerque Center
04:36PM 32.1778 -106.1672 279° West 425 489 40,000  Level Albuquerque Center
04:37PM 32.1936 -106.2869 279° West 425 489 40,000  Level Albuquerque Center
04:38PM 32.2114 -106.4242 278° West 425 489 40,000  Level Albuquerque Center
04:39PM 32.2269 -106.5614 280° West 425 489 40,000  Level Albuquerque Center
04:40PM 32.2486 -106.7011 287° West 425 489 40,000  Level Albuquerque Center
04:41PM 32.2828 -106.8358 286° West 430 495 40,000  Level Albuquerque Center
04:42PM 32.3167 -106.9731 286° West 430 495 40,000  Level Albuquerque Center
04:43PM 32.3503 -107.1081 285° West 430 495 40,000  Level Albuquerque Center
04:44PM 32.3861 -107.2653 289° West 435 501 40,000  Level Albuquerque Center
04:45PM 32.4256 -107.4003 287° West 440 506 40,000  Level Albuquerque Center
04:46PM 32.4611 -107.5406 286° West 440 506 40,000  Level Albuquerque Center
04:47PM 32.4942 -107.6736 286° West 435 501 40,000 -60 Level Albuquerque Center
04:48PM 32.5292 -107.8142 288° West 435 501 39,900  Descending Albuquerque Center
04:49PM 32.5619 -107.9325 287° West 435 501 40,000  Climbing Albuquerque Center
04:50PM 32.5967 -108.0706 287° West 435 501 40,000  Level Albuquerque Center
04:51PM 32.6311 -108.2089 284° West 435 501 40,000  Level Albuquerque Center
04:52PM 32.6614 -108.3497 283° West 435 501 40,000  Level Albuquerque Center
04:53PM 32.6914 -108.5031 284° West 435 501 40,000  Level Albuquerque Center
04:54PM 32.7192 -108.6392 283° West 435 501 40,000  Level Albuquerque Center
04:55PM 32.7447 -108.7753 283° West 430 495 40,000  Level Albuquerque Center
04:56PM 32.7664 -108.8867 283° West 430 495 40,000  Level Albuquerque Center
04:57PM 32.7956 -109.0378 284° West 430 495 40,000  Level Albuquerque Center
04:58PM 32.8228 -109.1717 284° West 430 495 40,000  Level Albuquerque Center
04:59PM 32.8500 -109.3008 283° West 417 480 40,000  Level Albuquerque Center
05:00PM 32.8750 -109.4325 283° West 412 474 40,000  Level Albuquerque Center
05:01PM 32.9017 -109.5667 283° West 412 474 40,000  Level Albuquerque Center
05:02PM 32.9283 -109.7033 283° West 418 481 40,000  Level Albuquerque Center
05:03PM 32.9550 -109.8375 283° West 418 481 40,000  Level Albuquerque Center
05:04PM 32.9811 -109.9744 283° West 418 481 40,000  Level Albuquerque Center
05:05PM 33.0111 -110.1264 282° West 418 481 40,000  Level Albuquerque Center
05:06PM 33.0350 -110.2633 287° West 423 487 40,000  Level Albuquerque Center
05:07PM 33.0692 -110.4008 286° West 423 487 40,000  Level Albuquerque Center
05:08PM 33.1011 -110.5383 285° West 429 494 40,000  Level Albuquerque Center
05:09PM 33.1328 -110.6783 286° West 434 499 40,000  Level Albuquerque Center
05:10PM 33.1625 -110.8008 286° West 434 499 40,000  Level Albuquerque Center
05:11PM 33.2000 -110.9539 286° West 439 505 40,000  Level Albuquerque Center
05:12PM 33.2331 -111.0942 286° West 439 505 40,000  Level Albuquerque Center
05:13PM 33.2661 -111.2347 285° West 439 505 40,000  Level Albuquerque Center
05:14PM 33.2992 -111.3778 285° West 439 505 40,000  Level Albuquerque Center
05:15PM 33.3297 -111.5183 285° West 439 505 40,000  Level Albuquerque Center
05:16PM 33.3586 -111.6442 286° West 439 505 40,000  Level Albuquerque Center
05:17PM 33.3931 -111.7875 284° West 439 505 40,000  Level Albuquerque Center
05:18PM 33.4233 -111.9286 285° West 439 505 40,000  Level Albuquerque Center
05:19PM 33.4553 -112.0722 285° West 439 505 40,000  Level Albuquerque Center
05:20PM 33.4869 -112.2183 285° West 439 505 40,000  Level Albuquerque Center
05:21PM 33.5222 -112.3722 284° West 439 505 40,000  Level Albuquerque Center
05:22PM 33.5536 -112.5186 285° West 444 511 40,000  Level Albuquerque Center
05:23PM 33.5850 -112.6603 284° West 444 511 40,000  Level Albuquerque Center
05:24PM 33.6161 -112.8067 284° West 444 511 40,000  Level Albuquerque Center
05:25PM 33.6467 -112.9533 284° West 449 517 40,000  Level Albuquerque Center
05:26PM 33.6722 -113.0772 285° West 443 510 40,000  Level Albuquerque Center
05:27PM 33.7050 -113.2219 284° West 437 503 40,000  Level Albuquerque Center
05:28PM 33.7333 -113.3636 284° West 437 503 40,000  Level Albuquerque Center
05:29PM 33.7619 -113.4981 284° West 437 503 40,000  Level Albuquerque Center
05:29PM 33.7889 -113.6294 284° West 435 501 40,000  Level Los Angeles Center
05:30PM 33.8189 -113.7708 284° West 450 518 40,000  Level Los Angeles Center
05:31PM 33.8486 -113.9128 284° West 445 512 40,000  Level Los Angeles Center
05:32PM 33.8781 -114.0519 284° West 445 512 40,000  Level Los Angeles Center
05:33PM 33.9075 -114.1914 285° West 439 505 40,000  Level Los Angeles Center
05:34PM 33.9367 -114.3211 282° West 439 505 40,000  Level Los Angeles Center
05:35PM 33.9617 -114.4608 284° West 434 499 40,000  Level Los Angeles Center
05:36PM 33.9906 -114.5981 283° West 429 494 40,000  Level Los Angeles Center
05:37PM 34.0172 -114.7378 284° West 429 494 40,000  Level Los Angeles Center
05:38PM 34.0436 -114.8703 284° West 429 494 40,000  Level Los Angeles Center
05:39PM 34.0722 -115.0103 283° West 429 494 40,000  Level Los Angeles Center
05:40PM 34.0983 -115.1453 284° West 429 494 40,000  Level Los Angeles Center
05:41PM 34.1267 -115.2806 283° West 424 488 40,000  Level Los Angeles Center
05:42PM 34.1525 -115.4183 284° West 424 488 40,000  Level Los Angeles Center
05:43PM 34.1803 -115.5564 282° West 424 488 40,000 -60 Level Los Angeles Center
05:44PM 34.2058 -115.6967 283° West 430 495 39,900 -60 Descending Los Angeles Center
05:45PM 34.2333 -115.8372 281° West 430 495 39,900  Level Los Angeles Center
05:46PM 34.2589 -115.9906 283° West 430 495 40,000  Climbing Los Angeles Center
05:47PM 34.2858 -116.1314 282° West 430 495 40,000  Level Los Angeles Center
05:48PM 34.3108 -116.2747 283° West 430 495 40,000  Level Los Angeles Center
05:49PM 34.3378 -116.4156 281° West 430 495 40,000  Level Los Angeles Center
05:50PM 34.3603 -116.5567 284° West 430 495 40,000  Level Los Angeles Center
05:51PM 34.3889 -116.7003 283° West 430 495 40,000 -600 Level Los Angeles Center
05:52PM 34.4153 -116.8439 281° West 430 495 38,900 -1,200 Descending Los Angeles Center
05:53PM 34.4375 -116.9800 283° West 429 494 37,700 -1,500 Descending Los Angeles Center
05:54PM 34.4633 -117.1189 282° West 424 488 36,000 -1,800 Descending Los Angeles Center
05:55PM 34.4894 -117.2628 282° West 429 494 34,100 -1,860 Descending Los Angeles Center
05:56PM 34.5150 -117.4069 282° West 435 501 32,300 -1,500 Descending Los Angeles Center
05:57PM 34.5406 -117.5486 281° West 435 501 31,200 -1,860 Descending Los Angeles Center
05:58PM 34.5639 -117.6953 283° West 435 501 28,600 -2,640 Descending Los Angeles Center
05:59PM 34.5911 -117.8397 282° West 435 501 26,000 -2,700 Descending Los Angeles Center
06:00PM 34.6161 -117.9839 295° West 435 501 23,200 -2,460 Descending Los Angeles Center
06:01PM 34.6642 -118.1114 312° West 413 475 21,100 -1,980 Descending Los Angeles Center
06:02PM 34.7294 -118.1989 313° West 399 459 19,300 -2,040 Descending Los Angeles Center
06:03PM 34.8069 -118.2994 313° West 404 465 17,100 -2,160 Descending Los Angeles Center
06:04PM 34.8803 -118.3950 314° West 397 457 15,000 -1,620 Descending Los Angeles Center
06:05PM 34.9497 -118.4831 314° West 380 437 13,900 -600 Descending Los Angeles Center
06:06PM 35.0086 -118.5583 318° Northwest 341 392 13,900 -660 Level Los Angeles Center
06:07PM 35.0719 -118.6289 316° Northwest 315 362 12,600 -1,200 Descending Los Angeles Center
06:08PM 35.1228 -118.6886 319° Northwest 284 327 11,600 -1,380 Descending Los Angeles Center
06:09PM 35.1719 -118.7411 302° West 251 289 9,900 -1,500 Descending Los Angeles Center
06:10PM 35.2039 -118.8031 325° Northwest 227 261 8,600 -1,380 Descending Los Angeles Center
06:11PM 35.2447 -118.8375 317° Northwest 195 224 7,200 -1,200 Descending Los Angeles Center
06:12PM 35.2836 -118.8819 317° Northwest 181 208 6,300 -900 Descending Los Angeles Center